Terminal Aerodrome Forecast
Issued by NWS

Home | Current Version | Previous Version | Text Only | Print | Product List | Glossary On
Versions: 1 2 3 4 5 6 7 8 9 10 11 12 13 14 15 16 17 18 19 20 21 22 23 24 25 26
440
FTUS43 KMQT 302321
TAFIWD
TAF
KIWD 302321Z 3100/3124 36005KT P6SM FEW130
     FM310900 10006KT P6SM BKN110
     FM311200 11007KT P6SM VCSH OVC080
     FM311500 12010G15KT P6SM -SHRA OVC070
     FM312200 15009KT P6SM -SHRA OVC045=

USA.gov is the U.S. government's official web portal to all federal, state and local government web resources and services.